Time;durP1;ratioP1;P1;durP2;ratioP2;P2;SDS_P1;SDS_P2;PMS_P1;PMS_P2;Temp;Humidity;BMP_temperature;BMP_pressure;BME280_temperature;BME280_humidity;BME280_pressure;Samples;Min_cycle;Max_cycle;Signal;HPM_P1;HPM_P2
2022/05/09 00:04:22;;;;;;;3.85;1.10;;;;;;;9.84;100.00;99350.47;15289627;19;20010;-53
2022/05/09 00:09:27;;;;;;;3.63;1.00;;;;;;;9.74;100.00;99346.88;15287921;19;20020;-57
2022/05/09 00:14:32;;;;;;;3.25;1.00;;;;;;;9.60;100.00;99349.91;15284818;19;20395;-58
2022/05/09 00:19:40;;;;;;;3.75;1.20;;;;;;;9.48;100.00;99355.34;15285303;19;20015;-57
2022/05/09 00:24:45;;;;;;;2.55;1.20;;;;;;;9.40;100.00;99349.78;15287129;19;20094;-57
2022/05/09 00:29:50;;;;;;;2.63;0.98;;;;;;;9.35;100.00;99354.72;15287248;19;20014;-59
2022/05/09 00:34:58;;;;;;;2.35;1.10;;;;;;;9.31;100.00;99361.34;15284024;19;20484;-58
2022/05/09 00:40:03;;;;;;;1.95;0.95;;;;;;;9.27;100.00;99355.38;15288460;19;20031;-60
2022/05/09 00:45:10;;;;;;;2.35;1.08;;;;;;;9.21;100.00;99359.44;15288554;19;20010;-59
2022/05/09 00:50:23;;;;;;;3.75;1.10;;;;;;;9.20;100.00;99363.09;15282535;19;20318;-57
2022/05/09 00:55:40;;;;;;;2.92;1.15;;;;;;;9.16;100.00;99358.94;15284037;19;20899;-57
2022/05/09 01:00:47;;;;;;;3.38;1.25;;;;;;;9.02;100.00;99364.63;15289454;19;20054;-55
2022/05/09 01:05:55;;;;;;;3.30;1.30;;;;;;;8.96;100.00;99362.47;15285051;19;20018;-57
2022/05/09 01:11:09;;;;;;;2.38;1.10;;;;;;;8.91;100.00;99361.00;15285291;19;20091;-59
2022/05/09 01:16:17;;;;;;;4.15;1.48;;;;;;;8.81;100.00;99354.69;15285778;19;20403;-58
2022/05/09 01:21:40;;;;;;;2.63;1.10;;;;;;;8.76;100.00;99357.75;15277745;19;20014;-59
2022/05/09 01:26:47;;;;;;;2.92;1.30;;;;;;;8.66;100.00;99355.94;15282761;19;20017;-57
2022/05/09 01:31:55;;;;;;;2.60;1.23;;;;;;;8.53;100.00;99356.09;15285904;19;20022;-58
2022/05/09 01:37:07;;;;;;;3.20;1.25;;;;;;;8.44;100.00;99344.25;15286261;19;20025;-53
2022/05/09 01:42:13;;;;;;;2.72;1.25;;;;;;;8.35;100.00;99345.00;15281783;19;20323;-60
2022/05/09 01:52:50;;;;;;;4.25;1.35;;;;;;;8.22;100.00;99353.19;15278809;19;20074;-55
2022/05/09 01:57:56;;;;;;;4.38;1.40;;;;;;;8.13;100.00;99352.94;15277193;19;20027;-58
2022/05/09 02:03:01;;;;;;;2.50;1.30;;;;;;;8.06;100.00;99345.50;15279972;19;20015;-57
2022/05/09 02:08:09;;;;;;;2.65;1.10;;;;;;;7.96;100.00;99343.56;15282085;19;20014;-60
2022/05/09 02:13:14;;;;;;;4.97;1.38;;;;;;;7.89;100.00;99342.34;15277886;19;20120;-56
2022/05/09 02:18:19;;;;;;;3.10;1.10;;;;;;;7.82;100.00;99343.81;15280036;19;20091;-55
2022/05/09 02:23:27;;;;;;;2.50;1.10;;;;;;;7.80;100.00;99349.28;15277529;19;20054;-57
2022/05/09 02:28:32;;;;;;;2.42;1.45;;;;;;;7.77;100.00;99348.66;15274482;19;20019;-58
2022/05/09 02:33:38;;;;;;;3.72;1.42;;;;;;;7.72;100.00;99352.56;15278553;19;20011;-58
2022/05/09 02:38:45;;;;;;;2.97;1.05;;;;;;;7.68;100.00;99350.25;15294564;19;20098;-58
2022/05/09 02:43:50;;;;;;;2.90;1.23;;;;;;;7.60;100.00;99356.19;15290299;19;20370;-60
2022/05/09 02:48:59;;;;;;;3.05;1.33;;;;;;;7.48;100.00;99359.81;15293767;19;20027;-58
2022/05/09 02:54:07;;;;;;;4.63;1.50;;;;;;;7.39;100.00;99361.41;15290357;19;20025;-59
2022/05/09 02:59:12;;;;;;;2.42;1.30;;;;;;;7.27;100.00;99365.88;15288802;19;20029;-58
2022/05/09 03:09:40;;;;;;;2.67;1.35;;;;;;;7.14;100.00;99357.91;15297695;19;20015;-56
2022/05/09 03:14:46;;;;;;;4.28;1.33;;;;;;;7.08;100.00;99361.03;15289884;19;20019;-56
2022/05/09 03:19:51;;;;;;;3.33;1.25;;;;;;;6.97;100.00;99361.88;15295419;19;20504;-54
2022/05/09 03:25:03;;;;;;;4.82;1.50;;;;;;;6.92;100.00;99372.94;15297120;19;20011;-58
2022/05/09 03:30:10;;;;;;;3.70;1.45;;;;;;;6.85;100.00;99365.47;15294573;19;20018;-57
2022/05/09 03:35:15;;;;;;;4.15;1.30;;;;;;;6.82;100.00;99373.72;15289095;19;20022;-56
2022/05/09 03:40:23;;;;;;;3.47;1.40;;;;;;;6.75;100.00;99368.84;15295836;19;20010;-56
2022/05/09 03:45:29;;;;;;;2.92;1.40;;;;;;;6.71;100.00;99374.50;15287147;19;20048;-58
2022/05/09 03:50:35;;;;;;;3.15;1.45;;;;;;;6.65;100.00;99367.78;15289133;19;20097;-56
2022/05/09 03:55:43;;;;;;;2.95;1.50;;;;;;;6.61;100.00;99371.66;15292727;19;20027;-59
2022/05/09 04:00:48;;;;;;;4.90;1.50;;;;;;;6.52;100.00;99372.34;15291472;19;20034;-56
2022/05/09 04:05:55;;;;;;;4.05;1.73;;;;;;;6.47;100.00;99370.84;15281968;19;20010;-57
2022/05/09 04:11:03;;;;;;;3.55;1.50;;;;;;;6.43;100.00;99365.81;15289348;19;20439;-55
2022/05/09 04:21:26;;;;;;;3.88;1.42;;;;;;;6.45;100.00;99369.25;15289098;19;20018;-52
2022/05/09 04:26:34;;;;;;;3.70;1.40;;;;;;;6.47;100.00;99378.00;15289639;19;20014;-57
2022/05/09 04:31:39;;;;;;;4.95;1.63;;;;;;;6.49;100.00;99368.03;15286180;19;20018;-55
2022/05/09 04:36:44;;;;;;;2.80;1.40;;;;;;;6.52;100.00;99378.53;15276406;19;20086;-56
2022/05/09 04:41:53;;;;;;;3.72;1.52;;;;;;;6.53;100.00;99380.25;15284548;19;20089;-58
2022/05/09 04:46:58;;;;;;;3.20;1.50;;;;;;;6.54;100.00;99383.78;15284088;19;20074;-55
2022/05/09 04:52:04;;;;;;;4.25;1.60;;;;;;;6.54;100.00;99379.28;15286014;19;20556;-55
2022/05/09 04:57:11;;;;;;;2.78;1.60;;;;;;;6.60;100.00;99386.03;15286016;19;20091;-59
2022/05/09 05:02:16;;;;;;;5.07;1.70;;;;;;;6.62;100.00;99387.59;15283732;19;20740;-57
2022/05/09 05:07:21;;;;;;;4.18;1.80;;;;;;;6.69;100.00;99385.34;15280992;19;20010;-57
2022/05/09 05:12:29;;;;;;;4.65;1.70;;;;;;;6.78;100.00;99383.81;15277321;19;20089;-57
2022/05/09 05:17:34;;;;;;;4.78;1.55;;;;;;;6.84;100.00;99395.91;15284483;19;20425;-58
2022/05/09 05:22:41;;;;;;;5.10;1.77;;;;;;;6.93;100.00;99397.88;15280733;19;20022;-57
2022/05/09 05:27:48;;;;;;;5.22;2.05;;;;;;;7.04;100.00;99395.25;15285176;19;20103;-65
2022/05/09 05:32:55;;;;;;;4.60;1.80;;;;;;;7.15;100.00;99404.31;15279101;19;20741;-54
2022/05/09 05:38:00;;;;;;;3.78;1.70;;;;;;;7.29;100.00;99400.63;15283944;19;20022;-54
2022/05/09 05:43:08;;;;;;;4.90;1.83;;;;;;;7.42;100.00;99409.41;15277471;19;20496;-55
2022/05/09 05:48:12;;;;;;;3.25;1.70;;;;;;;7.59;100.00;99410.81;15282017;19;20011;-51
2022/05/09 05:53:17;;;;;;;4.68;2.30;;;;;;;7.74;100.00;99421.31;15276948;19;20085;-55
2022/05/09 05:58:26;;;;;;;10.10;2.75;;;;;;;7.88;100.00;99415.75;15280474;19;20085;-60
2022/05/09 06:03:31;;;;;;;8.80;2.42;;;;;;;8.03;100.00;99413.69;15278663;19;20686;-60
2022/05/09 06:08:40;;;;;;;8.38;2.70;;;;;;;8.22;100.00;99418.47;15254866;19;20121;-57
2022/05/09 06:13:47;;;;;;;8.52;2.30;;;;;;;8.37;100.00;99421.75;15273720;19;20414;-57
2022/05/09 06:18:59;;;;;;;5.43;2.22;;;;;;;8.55;100.00;99419.47;15280178;19;20074;-60
2022/05/09 06:24:05;;;;;;;6.88;2.15;;;;;;;8.73;100.00;99418.97;15279287;19;20022;-56
2022/05/09 06:29:13;;;;;;;5.13;2.20;;;;;;;8.90;100.00;99418.41;15280055;19;20117;-57
2022/05/09 06:34:41;;;;;;;6.07;2.33;;;;;;;9.10;100.00;99424.00;15279883;19;20011;-58
2022/05/09 06:39:46;;;;;;;5.88;2.15;;;;;;;9.31;100.00;99431.25;15276991;19;20031;-59
2022/05/09 06:44:54;;;;;;;6.93;2.13;;;;;;;9.46;100.00;99424.59;15277200;19;20528;-61
2022/05/09 06:50:01;;;;;;;4.28;1.88;;;;;;;9.71;100.00;99427.88;15280282;19;20022;-59
2022/05/09 06:55:08;;;;;;;3.88;1.90;;;;;;;9.87;100.00;99427.44;15277569;19;20014;-60
2022/05/09 07:00:19;;;;;;;3.88;2.10;;;;;;;10.07;100.00;99428.38;15278412;19;20006;-59
2022/05/09 07:05:24;;;;;;;6.67;2.10;;;;;;;10.32;100.00;99431.63;15279540;19;20030;-60
2022/05/09 07:10:30;;;;;;;7.32;1.80;;;;;;;10.59;100.00;99431.06;15286293;19;20035;-59
2022/05/09 07:15:38;;;;;;;5.82;2.00;;;;;;;10.75;100.00;99425.19;15277394;19;20078;-57
2022/05/09 07:20:43;;;;;;;6.85;1.88;;;;;;;11.02;100.00;99423.66;15275711;19;20056;-56
2022/05/09 07:25:48;;;;;;;3.92;1.55;;;;;;;11.21;100.00;99416.59;15288797;19;20023;-58
2022/05/09 07:30:56;;;;;;;5.53;2.00;;;;;;;11.44;100.00;99422.53;15291724;19;20070;-58
2022/05/09 07:36:01;;;;;;;4.90;1.60;;;;;;;11.66;100.00;99420.53;15287484;19;20029;-59
2022/05/09 07:41:07;;;;;;;4.90;1.90;;;;;;;11.95;100.00;99414.25;15288966;19;20032;-59
2022/05/09 07:46:15;;;;;;;6.10;1.90;;;;;;;12.21;100.00;99408.25;15291265;19;20031;-57
2022/05/09 07:51:40;;;;;;;5.80;1.67;;;;;;;12.49;100.00;99417.22;15277264;19;20014;-58
2022/05/09 07:56:46;;;;;;;4.25;1.70;;;;;;;12.83;100.00;99404.94;15287797;19;20053;-60
2022/05/09 08:01:54;;;;;;;3.60;1.73;;;;;;;13.04;100.00;99407.38;15291626;19;20551;-57
2022/05/09 08:06:59;;;;;;;4.95;1.83;;;;;;;13.29;100.00;99403.06;15293652;19;20043;-59
2022/05/09 08:12:05;;;;;;;2.95;1.60;;;;;;;13.61;100.00;99403.53;15294787;19;20027;-57
2022/05/09 08:17:12;;;;;;;9.38;1.92;;;;;;;13.84;100.00;99404.72;15287751;19;20022;-58
2022/05/09 08:22:21;;;;;;;4.03;1.40;;;;;;;14.18;100.00;99397.69;15283023;19;20031;-55
2022/05/09 08:27:26;;;;;;;4.43;1.40;;;;;;;14.40;100.00;99390.84;15290980;19;20118;-59
2022/05/09 08:32:44;;;;;;;3.30;1.45;;;;;;;14.62;100.00;99389.41;15285780;19;20022;-56
2022/05/09 08:37:49;;;;;;;5.88;1.40;;;;;;;14.94;98.21;99393.25;15285910;19;20491;-57
2022/05/09 08:43:04;;;;;;;5.78;1.25;;;;;;;15.20;83.41;99389.59;15290603;19;20512;-56
2022/05/09 08:48:27;;;;;;;5.47;1.20;;;;;;;15.50;71.37;99392.69;15287833;19;20539;-56
2022/05/09 08:53:35;;;;;;;4.00;1.38;;;;;;;15.72;78.18;99399.28;15279204;19;20069;-59
2022/05/09 08:58:44;;;;;;;5.35;1.13;;;;;;;15.97;74.65;99399.28;15286293;19;20447;-58
2022/05/09 09:04:01;;;;;;;6.03;1.55;;;;;;;16.18;76.84;99390.59;15287490;19;20011;-60
2022/05/09 09:09:20;;;;;;;6.35;1.30;;;;;;;16.35;80.41;99393.25;15291063;19;20010;-55
2022/05/09 09:14:39;;;;;;;4.45;1.20;;;;;;;16.58;71.58;99389.78;15286170;19;20619;-58
2022/05/09 09:20:08;;;;;;;4.88;1.70;;;;;;;16.69;74.33;99391.25;15286383;19;20086;-59
2022/05/09 09:25:30;;;;;;;6.30;1.52;;;;;;;16.86;73.42;99397.47;15289980;19;20031;-60
2022/05/09 09:30:36;;;;;;;3.30;1.50;;;;;;;16.94;74.84;99395.59;15286554;19;20014;-56
2022/05/09 09:35:52;;;;;;;4.05;1.42;;;;;;;17.06;68.88;99392.47;15285102;19;20013;-58
2022/05/09 09:40:57;;;;;;;4.30;1.60;;;;;;;17.12;72.64;99386.28;15285026;19;20121;-58
2022/05/09 09:46:07;;;;;;;5.05;1.60;;;;;;;17.21;76.13;99377.06;15288579;19;20472;-58
2022/05/09 09:51:20;;;;;;;5.95;1.55;;;;;;;17.38;73.85;99376.91;15283613;19;20423;-62
2022/05/09 09:56:31;;;;;;;3.83;1.20;;;;;;;17.61;75.48;99362.41;15281305;19;20027;-57
2022/05/09 10:01:38;;;;;;;4.55;1.50;;;;;;;17.65;72.33;99363.75;15281110;19;20010;-53
2022/05/09 10:07:04;;;;;;;5.00;1.55;;;;;;;17.75;68.63;99353.44;15282038;19;20018;-54
2022/05/09 10:12:20;;;;;;;4.93;1.40;;;;;;;17.85;67.73;99362.19;15281770;19;20476;-60
2022/05/09 10:17:31;;;;;;;4.53;1.42;;;;;;;17.93;65.40;99355.00;15280470;19;20007;-54
2022/05/09 10:28:10;;;;;;;3.55;1.23;;;;;;;18.31;66.83;99347.59;15283510;19;20139;-54
2022/05/09 10:33:31;;;;;;;4.70;1.33;;;;;;;18.39;65.75;99352.09;15272964;19;20520;-61
2022/05/09 10:38:44;;;;;;;3.50;1.10;;;;;;;18.41;64.08;99341.00;15276745;19;20006;-55
2022/05/09 10:43:56;;;;;;;3.90;1.27;;;;;;;18.59;63.11;99340.59;15281010;19;20360;-54
2022/05/09 10:49:08;;;;;;;5.10;1.40;;;;;;;18.59;63.68;99333.25;15282774;19;20015;-56
2022/05/09 10:54:22;;;;;;;3.70;1.00;;;;;;;18.79;60.65;99329.94;15277326;19;20097;-55
2022/05/09 10:59:29;;;;;;;3.63;1.13;;;;;;;18.98;61.60;99327.63;15289984;19;20010;-53
2022/05/09 11:04:37;;;;;;;3.05;1.20;;;;;;;18.90;59.40;99326.69;15285132;19;20074;-58
2022/05/09 11:09:59;;;;;;;5.00;1.20;;;;;;;19.05;62.37;99317.63;15286078;19;20014;-58
2022/05/09 11:15:14;;;;;;;3.35;1.20;;;;;;;19.11;59.51;99308.66;15269102;19;20028;-57
2022/05/09 11:20:29;;;;;;;3.28;1.10;;;;;;;19.30;57.03;99307.16;15292310;19;20472;-55
2022/05/09 11:25:51;;;;;;;5.10;1.30;;;;;;;19.52;56.54;99312.59;15289497;19;20346;-56
2022/05/09 11:31:04;;;;;;;6.93;1.33;;;;;;;19.69;58.50;99300.31;15288977;19;20060;-57
2022/05/09 11:36:28;;;;;;;6.57;1.30;;;;;;;19.67;56.12;99296.94;15285402;19;20018;-58
2022/05/09 11:41:45;;;;;;;4.50;1.25;;;;;;;19.73;55.83;99278.03;15290844;19;20018;-58
2022/05/09 11:47:22;;;;;;;3.40;1.20;;;;;;;19.78;56.24;99283.75;15291509;19;20077;-58
2022/05/09 11:52:30;;;;;;;2.30;1.00;;;;;;;20.02;56.71;99280.56;15288880;19;20136;-58
2022/05/09 11:57:41;;;;;;;6.55;1.20;;;;;;;20.24;55.61;99275.00;15284852;19;20448;-57
2022/05/09 12:02:50;;;;;;;3.20;1.10;;;;;;;20.40;55.10;99267.50;15288374;19;20042;-57
2022/05/09 12:07:58;;;;;;;6.25;1.10;;;;;;;20.49;53.74;99263.50;15283435;19;20011;-57
2022/05/09 12:13:07;;;;;;;3.65;0.90;;;;;;;20.74;54.51;99260.22;15285813;19;20101;-55
2022/05/09 12:18:54;;;;;;;6.15;1.33;;;;;;;20.91;51.64;99256.06;15285192;19;20039;-57
2022/05/09 12:24:26;;;;;;;3.28;1.00;;;;;;;21.02;50.94;99240.06;15284944;19;20011;-58
2022/05/09 12:29:52;;;;;;;4.40;1.30;;;;;;;21.12;48.74;99247.88;15286665;19;20852;-57
2022/05/09 12:35:02;;;;;;;4.25;1.00;;;;;;;21.36;50.44;99238.16;15287162;19;20180;-57
2022/05/09 12:40:28;;;;;;;4.65;1.13;;;;;;;21.57;50.76;99219.81;15284174;19;20668;-58
2022/05/09 12:45:36;;;;;;;3.30;1.10;;;;;;;22.01;51.17;99219.06;15287641;19;20381;-56
2022/05/09 12:50:45;;;;;;;2.00;0.93;;;;;;;22.04;49.59;99228.78;15286025;19;20034;-53
2022/05/09 12:55:57;;;;;;;2.97;1.17;;;;;;;22.05;49.07;99218.66;15285668;19;20082;-58
2022/05/09 13:01:08;;;;;;;4.43;1.23;;;;;;;22.23;50.16;99213.28;15286101;19;20014;-58
2022/05/09 13:06:48;;;;;;;4.28;1.25;;;;;;;22.58;48.75;99214.81;15285280;19;20734;-55
2022/05/09 13:11:57;;;;;;;5.05;1.20;;;;;;;22.52;48.97;99205.56;15281449;19;20048;-58
2022/05/09 13:17:14;;;;;;;5.25;1.00;;;;;;;22.55;47.94;99201.53;15284123;19;20035;-55
2022/05/09 13:22:24;;;;;;;5.45;1.40;;;;;;;22.56;47.02;99201.31;15279752;19;20014;-57
2022/05/09 13:27:34;;;;;;;3.78;1.20;;;;;;;22.82;47.52;99191.19;15286064;19;20590;-54
2022/05/09 13:32:42;;;;;;;4.65;1.00;;;;;;;23.20;46.35;99192.22;15282771;19;20018;-56
2022/05/09 13:37:49;;;;;;;2.75;1.10;;;;;;;23.58;45.69;99182.94;15288191;19;20019;-62
2022/05/09 13:42:56;;;;;;;5.65;1.17;;;;;;;23.69;46.17;99178.59;15287086;19;20029;-59
2022/05/09 13:48:10;;;;;;;2.72;1.15;;;;;;;23.96;45.62;99168.16;15287166;19;20014;-56
2022/05/09 13:53:22;;;;;;;2.47;1.00;;;;;;;23.98;44.19;99165.19;15287286;19;20015;-58
2022/05/09 13:58:31;;;;;;;4.97;1.20;;;;;;;24.34;44.61;99159.81;15282473;19;20014;-56
2022/05/09 14:03:41;;;;;;;4.30;1.17;;;;;;;24.60;43.84;99158.59;15286181;19;20414;-59
2022/05/09 14:08:50;;;;;;;4.60;1.17;;;;;;;24.77;43.80;99153.25;15287547;19;20116;-58
2022/05/09 14:13:55;;;;;;;4.18;1.02;;;;;;;24.90;44.02;99146.72;15281026;19;20662;-57
2022/05/09 14:19:14;;;;;;;4.15;1.10;;;;;;;25.02;42.67;99131.03;15278899;19;20028;-58
2022/05/09 14:24:27;;;;;;;3.85;1.10;;;;;;;25.30;43.74;99125.88;15279612;19;20023;-56
2022/05/09 14:29:55;;;;;;;4.25;1.20;;;;;;;25.28;42.58;99122.50;15283384;19;20050;-60
2022/05/09 14:35:03;;;;;;;2.53;1.10;;;;;;;25.24;42.50;99111.13;15294542;19;20610;-57
2022/05/09 14:40:19;;;;;;;2.50;0.90;;;;;;;25.29;42.77;99113.16;15290057;19;20467;-58
2022/05/09 14:45:27;;;;;;;3.65;1.15;;;;;;;25.62;41.43;99108.94;15294787;19;20027;-59
2022/05/09 14:50:36;;;;;;;4.78;1.00;;;;;;;25.87;43.01;99105.03;15293192;19;20029;-59
2022/05/09 15:01:08;;;;;;;5.65;1.30;;;;;;;26.00;41.15;99094.53;15298254;19;20022;-60
2022/05/09 15:06:18;;;;;;;2.35;0.90;;;;;;;25.71;41.37;99090.06;15298579;19;20010;-60
2022/05/09 15:11:26;;;;;;;3.20;1.00;;;;;;;25.94;41.88;99089.16;15297543;19;20023;-61
2022/05/09 15:16:45;;;;;;;4.90;1.10;;;;;;;26.15;41.51;99074.69;15295257;19;20007;-55
2022/05/09 15:21:53;;;;;;;3.05;1.00;;;;;;;25.88;40.82;99076.34;15288275;19;20014;-62
2022/05/09 15:26:58;;;;;;;2.35;0.98;;;;;;;25.69;41.18;99068.25;15292077;19;20063;-55
2022/05/09 15:32:08;;;;;;;3.38;0.98;;;;;;;25.84;41.36;99064.97;15291682;19;20385;-62
2022/05/09 15:37:19;;;;;;;2.05;0.90;;;;;;;25.84;40.42;99071.31;15287007;19;20022;-60
2022/05/09 15:42:30;;;;;;;3.93;1.00;;;;;;;25.60;40.63;99069.69;15290943;19;20018;-56
2022/05/09 15:47:39;;;;;;;2.63;1.10;;;;;;;25.39;41.50;99063.72;15292104;19;20014;-63
2022/05/09 15:52:59;;;;;;;4.60;1.00;;;;;;;25.77;40.88;99065.09;15287720;19;20015;-62
2022/05/09 15:58:04;;;;;;;5.38;1.50;;;;;;;25.74;40.22;99053.72;15286653;19;20043;-56
2022/05/09 16:03:13;;;;;;;1.83;0.75;;;;;;;25.77;41.05;99054.06;15285875;19;20047;-53
2022/05/09 16:13:39;;;;;;;2.83;0.90;;;;;;;25.67;41.52;99045.59;15289073;19;20018;-59
2022/05/09 16:18:45;;;;;;;2.67;0.88;;;;;;;25.57;41.87;99045.38;15289546;19;20800;-60
2022/05/09 16:23:57;;;;;;;3.60;1.00;;;;;;;25.43;41.34;99042.03;15288198;19;20013;-62
2022/05/09 16:29:06;;;;;;;3.85;1.25;;;;;;;25.41;41.52;99038.69;15286238;19;20011;-59
2022/05/09 16:34:14;;;;;;;12.52;2.67;;;;;;;25.37;41.16;99032.78;15285580;19;20014;-59
2022/05/09 16:39:22;;;;;;;3.75;1.10;;;;;;;25.42;41.54;99032.94;15281954;19;20071;-61
2022/05/09 16:44:27;;;;;;;3.30;1.10;;;;;;;25.42;41.80;99029.31;15288414;19;20039;-61
2022/05/09 16:49:32;;;;;;;3.58;1.25;;;;;;;25.41;41.55;99025.75;15285869;19;20019;-59
2022/05/09 16:54:39;;;;;;;2.80;0.77;;;;;;;25.33;40.30;99020.59;15287130;19;20674;-57
2022/05/09 16:59:46;;;;;;;2.72;0.90;;;;;;;25.32;41.25;99016.97;15283843;19;20403;-57
2022/05/09 17:04:51;;;;;;;4.70;0.90;;;;;;;25.20;41.86;99017.00;15291781;19;20023;-58
2022/05/09 17:09:59;;;;;;;2.75;1.10;;;;;;;25.04;42.68;99023.25;15290723;19;20531;-58
2022/05/09 17:15:16;;;;;;;0.90;0.80;;;;;;;24.96;42.26;99023.63;15289980;19;20604;-58
2022/05/09 17:20:26;;;;;;;2.78;0.90;;;;;;;24.71;43.02;99020.03;15283965;19;20413;-57
2022/05/09 17:25:39;;;;;;;5.18;0.90;;;;;;;24.65;43.52;99020.13;15284959;19;20475;-60
2022/05/09 17:30:45;;;;;;;1.77;0.73;;;;;;;24.62;44.31;99025.06;15282853;19;20476;-57
2022/05/09 17:41:18;;;;;;;1.85;0.80;;;;;;;24.01;43.99;99027.09;15282231;19;20078;-58
2022/05/09 17:46:29;;;;;;;2.55;0.90;;;;;;;23.46;44.50;99030.78;15282226;19;20035;-63
2022/05/09 17:51:35;;;;;;;2.67;0.80;;;;;;;23.09;45.54;99028.84;15280963;19;21049;-58
2022/05/09 17:56:44;;;;;;;4.72;0.90;;;;;;;22.67;46.25;99029.47;15284315;19;20010;-57
2022/05/09 18:01:54;;;;;;;3.28;0.98;;;;;;;22.45;47.14;99037.28;15285760;19;20567;-58
2022/05/09 18:07:00;;;;;;;5.95;0.90;;;;;;;22.13;47.00;99020.81;15272988;19;20927;-58
2022/05/09 18:12:11;;;;;;;4.03;0.98;;;;;;;21.74;47.43;99031.81;15281865;19;20039;-60
2022/05/09 18:17:23;;;;;;;4.10;0.80;;;;;;;21.45;48.53;99027.72;15278996;19;20043;-59
2022/05/09 18:22:32;;;;;;;3.20;1.10;;;;;;;21.14;48.87;99041.09;15277181;19;20033;-60
2022/05/09 18:27:41;;;;;;;2.00;0.85;;;;;;;20.80;49.88;99032.13;15277447;19;20812;-60
2022/05/09 18:32:53;;;;;;;3.13;1.20;;;;;;;20.54;50.39;99041.16;15273052;19;20152;-58
2022/05/09 18:38:25;;;;;;;4.70;1.20;;;;;;;20.28;51.43;99038.22;15276233;19;20049;-59
2022/05/09 18:43:34;;;;;;;5.03;1.10;;;;;;;20.00;52.17;99044.72;15279179;19;20015;-67
2022/05/09 18:48:40;;;;;;;3.42;1.10;;;;;;;19.68;52.87;99058.06;15277783;19;20667;-58
2022/05/09 18:53:45;;;;;;;1.70;0.98;;;;;;;19.46;53.40;99053.78;15279515;19;20110;-55
2022/05/09 18:58:53;;;;;;;3.35;1.08;;;;;;;19.23;54.29;99055.75;15279589;19;21263;-58
2022/05/09 19:03:58;;;;;;;2.10;1.10;;;;;;;19.05;54.40;99059.00;15278305;19;20028;-60
2022/05/09 19:09:03;;;;;;;3.55;1.20;;;;;;;18.81;57.74;99068.50;15273167;19;20432;-60
2022/05/09 19:14:19;;;;;;;2.03;1.00;;;;;;;18.48;61.06;99064.47;15273562;19;20036;-60
2022/05/09 19:19:25;;;;;;;4.30;1.10;;;;;;;18.32;61.92;99075.63;15290710;19;20047;-60
2022/05/09 19:24:30;;;;;;;1.40;1.00;;;;;;;18.10;62.84;99070.19;15295306;19;20415;-59
2022/05/09 19:29:40;;;;;;;3.60;1.10;;;;;;;17.92;65.27;99072.50;15294418;19;20018;-60
2022/05/09 19:34:45;;;;;;;3.00;1.15;;;;;;;17.78;65.52;99077.78;15296612;19;20014;-59
2022/05/09 19:39:52;;;;;;;2.08;0.90;;;;;;;17.63;67.04;99076.97;15282012;19;20479;-61
2022/05/09 19:45:02;;;;;;;2.30;1.10;;;;;;;17.45;70.12;99083.69;15293927;19;20362;-56
2022/05/09 19:50:10;;;;;;;3.63;1.05;;;;;;;17.22;74.40;99081.91;15286563;19;20039;-61
2022/05/09 19:55:18;;;;;;;3.42;1.08;;;;;;;17.13;74.74;99084.91;15290557;19;20490;-59
2022/05/09 20:00:25;;;;;;;4.50;1.00;;;;;;;17.01;77.14;99088.09;15288938;19;20942;-59
2022/05/09 20:05:30;;;;;;;3.28;1.15;;;;;;;16.83;80.37;99083.00;15291480;19;20011;-58
2022/05/09 20:10:36;;;;;;;4.93;1.17;;;;;;;16.70;82.39;99085.50;15293427;19;20020;-58
2022/05/09 20:15:44;;;;;;;4.03;1.10;;;;;;;16.63;83.53;99083.53;15293103;19;20011;-58
2022/05/09 20:20:49;;;;;;;3.80;1.10;;;;;;;16.51;91.22;99085.00;15290775;19;20098;-58
2022/05/09 20:31:15;;;;;;;2.67;1.20;;;;;;;16.25;97.45;99088.94;15289850;19;20074;-57
2022/05/09 20:36:22;;;;;;;2.00;1.20;;;;;;;16.26;94.60;99089.78;15287933;19;20516;-58
2022/05/09 20:41:27;;;;;;;6.38;1.30;;;;;;;16.25;99.15;99079.91;15285576;19;20175;-56
2022/05/09 20:46:37;;;;;;;2.10;1.10;;;;;;;16.14;100.00;99078.50;15285431;19;20022;-56
2022/05/09 20:51:43;;;;;;;5.03;1.40;;;;;;;16.05;100.00;99074.97;15287333;19;20035;-62
2022/05/09 20:56:48;;;;;;;2.25;1.00;;;;;;;15.94;100.00;99072.69;15286982;19;20646;-62
2022/05/09 21:01:55;;;;;;;3.17;1.30;;;;;;;15.85;100.00;99077.31;15285823;19;20097;-61
2022/05/09 21:07:01;;;;;;;2.55;1.30;;;;;;;15.78;100.00;99079.03;15286861;19;20019;-61
2022/05/09 21:12:13;;;;;;;4.95;1.30;;;;;;;15.66;100.00;99076.72;15287761;19;20014;-60
2022/05/09 21:17:21;;;;;;;3.17;1.35;;;;;;;15.46;100.00;99067.31;15282761;19;20014;-60
2022/05/09 21:22:31;;;;;;;2.35;1.00;;;;;;;15.29;100.00;99063.84;15288450;19;21214;-60
2022/05/09 21:27:36;;;;;;;2.17;1.10;;;;;;;15.27;100.00;99060.44;15284563;19;20003;-59
2022/05/09 21:32:44;;;;;;;5.22;1.30;;;;;;;15.28;100.00;99057.56;15286344;19;20018;-59
2022/05/09 21:37:49;;;;;;;3.15;1.30;;;;;;;15.24;100.00;99061.63;15285978;19;20414;-53
2022/05/09 21:42:54;;;;;;;3.80;1.17;;;;;;;15.21;100.00;99059.28;15286337;19;20022;-57
2022/05/09 21:48:03;;;;;;;2.78;1.23;;;;;;;15.21;100.00;99064.72;15287725;19;20468;-58
2022/05/09 21:53:09;;;;;;;3.95;1.35;;;;;;;15.19;100.00;99061.31;15284108;19;20070;-56
2022/05/09 21:58:14;;;;;;;5.35;1.27;;;;;;;15.16;100.00;99058.94;15280101;19;20425;-58
2022/05/09 22:03:25;;;;;;;2.42;1.40;;;;;;;15.03;100.00;99054.09;15283363;19;20023;-56
2022/05/09 22:08:30;;;;;;;3.47;1.40;;;;;;;14.97;100.00;99042.06;15284775;19;20022;-55
2022/05/09 22:13:35;;;;;;;4.82;1.30;;;;;;;14.88;100.00;99037.66;15281698;19;20014;-55
2022/05/09 22:18:43;;;;;;;2.78;1.38;;;;;;;14.83;100.00;99031.94;15284366;19;20015;-58
2022/05/09 22:23:48;;;;;;;5.10;1.25;;;;;;;14.74;100.00;99034.69;15282233;19;20022;-56
2022/05/09 22:34:13;;;;;;;3.53;1.40;;;;;;;14.64;100.00;99028.56;15281155;19;20035;-57
2022/05/09 22:39:19;;;;;;;2.40;1.20;;;;;;;14.61;100.00;99023.47;15280682;19;20014;-55
2022/05/09 22:44:25;;;;;;;5.15;1.27;;;;;;;14.55;100.00;99013.31;15281296;19;20015;-54
2022/05/09 22:49:37;;;;;;;2.95;1.10;;;;;;;14.53;100.00;99010.78;15281711;19;20114;-57
2022/05/09 22:54:42;;;;;;;2.28;1.20;;;;;;;14.48;100.00;99019.44;15295737;19;20476;-57
2022/05/09 22:59:48;;;;;;;2.78;1.30;;;;;;;14.39;100.00;99009.63;15296808;19;20050;-52
2022/05/09 23:04:59;;;;;;;2.95;1.40;;;;;;;14.25;100.00;99007.59;15295684;19;20036;-59
2022/05/09 23:10:07;;;;;;;2.63;1.27;;;;;;;14.20;100.00;99004.53;15292913;19;20553;-58
2022/05/09 23:15:15;;;;;;;1.98;1.20;;;;;;;14.12;100.00;98995.41;15300984;19;20015;-54
2022/05/09 23:20:26;;;;;;;4.07;1.40;;;;;;;14.05;100.00;98986.28;15297458;19;20077;-56
2022/05/09 23:25:31;;;;;;;2.20;1.20;;;;;;;13.95;100.00;98985.56;15035098;19;5000942;-55
2022/05/09 23:30:36;;;;;;;2.88;1.50;;;;;;;13.79;100.00;98976.47;15296483;19;20555;-58
2022/05/09 23:35:43;;;;;;;4.10;1.35;;;;;;;13.67;100.00;98969.69;15297409;19;20163;-56
2022/05/09 23:40:48;;;;;;;3.55;1.20;;;;;;;13.54;100.00;98968.31;15295421;19;20010;-58
2022/05/09 23:45:53;;;;;;;3.17;1.17;;;;;;;13.46;100.00;98976.41;15291618;19;20693;-60
2022/05/09 23:51:01;;;;;;;2.45;1.20;;;;;;;13.39;100.00;98965.41;15292775;19;20595;-58
2022/05/09 23:56:07;;;;;;;3.30;1.40;;;;;;;13.36;100.00;98967.53;15294076;19;20018;-56
